Sukari Primero — EAAU — position and weather

sailwx.info

Track history (hours):
 
Tides and Currents Weather Stations Pressure Air Temp Water Temp Dewpoint Dewpoint Depression Visibility Wind Speed Wind Dir Waves Ship Positions

Sukari Primero

Last reported at 2017-Nov-19 14:42 UTC. Time now 2017-Nov-20 12:13 UTC.
Position N 48°04' W 005°10'.

Length 31 m; draft 4 m.

Type: Fishing. MMSI: 224052970.

Date/timePositionNaut miles runAvg speedWind from/ knotsBaromVisibWave heightAir tempDewpointWater temp
2017-Nov-19 14:42N 48°04' W 005°10'2 8.9
2017-Nov-19 14:30N 48°04' W 005°07'510.5
2017-Nov-19 14:00N 48°04' W 004°60'510.1
2017-Nov-19 13:30N 48°05' W 004°52'510.1
2017-Nov-19 13:00N 48°06' W 004°45'5 9.2
2017-Nov-19 12:31N 48°06' W 004°38'510.0
2017-Nov-19 12:00N 48°07' W 004°31'510.2
2017-Nov-19 11:30N 48°07' W 004°23'3 5.1
2017-Nov-19 11:01N 48°06' W 004°20'0 0.0
2017-Nov-19 10:30N 48°06' W 004°20'0 0.0
2017-Nov-19 10:00N 48°06' W 004°20'0 0.0
2017-Nov-19 09:30N 48°06' W 004°20'0 0.0
2017-Nov-19 09:01N 48°06' W 004°20'0 0.0
2017-Nov-19 08:31N 48°06' W 004°20'0 0.0
2017-Nov-19 08:00N 48°06' W 004°20'0 0.0
2017-Nov-19 07:30N 48°06' W 004°20'0 0.0
2017-Nov-19 07:01N 48°06' W 004°20'0 0.0
2017-Nov-19 06:30N 48°06' W 004°20'0 0.0
2017-Nov-19 06:01N 48°06' W 004°20'0 0.0
2017-Nov-19 05:31N 48°06' W 004°20'0 0.0
2017-Nov-19 05:00N 48°06' W 004°20'0 0.0
2017-Nov-19 04:30N 48°06' W 004°20'0 0.0
2017-Nov-19 04:00N 48°06' W 004°20'1 2.8
2017-Nov-19 03:30N 48°07' W 004°21'3 7.1
2017-Nov-19 03:00N 48°07' W 004°26'5 9.6
2017-Nov-19 02:30N 48°07' W 004°33'611.1
2017-Nov-19 02:01N 48°07' W 004°42'611.6
2017-Nov-19 01:31N 48°07' W 004°50'611.0
2017-Nov-19 01:00N 48°06' W 004°59'611.3
2017-Nov-19 00:31N 48°06' W 005°07'  
2017-Nov-15 14:34N 48°04' W 005°11'1 9.9
2017-Nov-15 14:30N 48°04' W 005°10'610.5
2017-Nov-15 13:58N 48°04' W 005°02'510.8
2017-Nov-15 13:30N 48°05' W 004°55'510.4
2017-Nov-15 13:01N 48°06' W 004°47'5 9.4
2017-Nov-15 12:31N 48°06' W 004°40'510.2
2017-Nov-15 12:00N 48°07' W 004°32'510.2
2017-Nov-15 11:30N 48°07' W 004°25'4 7.5
2017-Nov-15 11:00N 48°06' W 004°20'0 0.0
2017-Nov-15 10:30N 48°06' W 004°20'0 0.0
2017-Nov-15 09:59N 48°06' W 004°20'0 0.0
2017-Nov-15 09:28N 48°06' W 004°20'0 0.0
2017-Nov-15 09:00N 48°06' W 004°20'0 0.0
2017-Nov-15 08:30N 48°06' W 004°20'0 0.0
2017-Nov-15 08:00N 48°06' W 004°20'0 0.0
2017-Nov-15 07:30N 48°06' W 004°20'0 0.0
2017-Nov-15 07:00N 48°06' W 004°20'0 0.0
2017-Nov-15 06:30N 48°06' W 004°20'0 0.0
2017-Nov-15 05:58N 48°06' W 004°20'0 0.0
2017-Nov-15 05:30N 48°06' W 004°20'0 0.0
2017-Nov-15 05:00N 48°06' W 004°20'0 0.0
2017-Nov-15 04:30N 48°06' W 004°20'0 0.0
2017-Nov-15 04:01N 48°06' W 004°20'0 0.0
2017-Nov-15 03:30N 48°06' W 004°20'0 0.0
2017-Nov-15 03:00N 48°06' W 004°20'0 0.0
2017-Nov-15 02:30N 48°06' W 004°20'0 0.0
2017-Nov-15 02:00N 48°06' W 004°20'0 0.0
2017-Nov-15 01:30N 48°06' W 004°20'0 0.0
2017-Nov-15 01:00N 48°06' W 004°20'0 0.0
2017-Nov-15 00:30N 48°06' W 004°20'0 0.0
2017-Nov-15 00:00N 48°06' W 004°20'0 0.0
2017-Nov-14 23:30N 48°06' W 004°20'0 0.0
2017-Nov-14 23:00N 48°06' W 004°20'0 0.0
2017-Nov-14 22:30N 48°06' W 004°20'0 0.1
2017-Nov-14 21:59N 48°06' W 004°20'2 4.8
2017-Nov-14 21:31N 48°07' W 004°22'3 6.5
2017-Nov-14 21:00N 48°07' W 004°27'4 7.2
2017-Nov-14 20:31N 48°08' W 004°33'4 8.2
2017-Nov-14 20:00N 48°08' W 004°39'5 9.4
2017-Nov-14 19:31N 48°09' W 004°46'5 9.3
2017-Nov-14 19:00N 48°09' W 004°53'5 9.6
2017-Nov-14 18:30N 48°10' W 004°60'510.0
2017-Nov-14 18:00N 48°11' W 005°07'610.5
2017-Nov-14 17:25N 48°12' W 005°16'  
Track history (hours):
 
Tides and Currents Weather Stations Pressure Air Temp Water Temp Dewpoint Dewpoint Depression Visibility Wind Speed Wind Dir Waves Ship Positions

Sukari Primero

Last reported at 2017-Nov-19 14:42 UTC. Time now 2017-Nov-20 12:13 UTC.
Position N 48°04' W 005°10'.

Length 31 m; draft 4 m.

Type: Fishing. MMSI: 224052970.

Date/timePositionNaut miles runAvg speedWind from/ knotsBaromVisibWave heightAir tempDewpointWater temp
2017-Nov-19 14:42N 48°04' W 005°10'2 8.9
2017-Nov-19 14:30N 48°04' W 005°07'510.5
2017-Nov-19 14:00N 48°04' W 004°60'510.1
2017-Nov-19 13:30N 48°05' W 004°52'510.1
2017-Nov-19 13:00N 48°06' W 004°45'5 9.2
2017-Nov-19 12:31N 48°06' W 004°38'510.0
2017-Nov-19 12:00N 48°07' W 004°31'510.2
2017-Nov-19 11:30N 48°07' W 004°23'3 5.1
2017-Nov-19 11:01N 48°06' W 004°20'0 0.0
2017-Nov-19 10:30N 48°06' W 004°20'0 0.0
2017-Nov-19 10:00N 48°06' W 004°20'0 0.0
2017-Nov-19 09:30N 48°06' W 004°20'0 0.0
2017-Nov-19 09:01N 48°06' W 004°20'0 0.0
2017-Nov-19 08:31N 48°06' W 004°20'0 0.0
2017-Nov-19 08:00N 48°06' W 004°20'0 0.0
2017-Nov-19 07:30N 48°06' W 004°20'0 0.0
2017-Nov-19 07:01N 48°06' W 004°20'0 0.0
2017-Nov-19 06:30N 48°06' W 004°20'0 0.0
2017-Nov-19 06:01N 48°06' W 004°20'0 0.0
2017-Nov-19 05:31N 48°06' W 004°20'0 0.0
2017-Nov-19 05:00N 48°06' W 004°20'0 0.0
2017-Nov-19 04:30N 48°06' W 004°20'0 0.0
2017-Nov-19 04:00N 48°06' W 004°20'1 2.8
2017-Nov-19 03:30N 48°07' W 004°21'3 7.1
2017-Nov-19 03:00N 48°07' W 004°26'5 9.6
2017-Nov-19 02:30N 48°07' W 004°33'611.1
2017-Nov-19 02:01N 48°07' W 004°42'611.6
2017-Nov-19 01:31N 48°07' W 004°50'611.0
2017-Nov-19 01:00N 48°06' W 004°59'611.3
2017-Nov-19 00:31N 48°06' W 005°07'  
2017-Nov-15 14:34N 48°04' W 005°11'1 9.9
2017-Nov-15 14:30N 48°04' W 005°10'610.5
2017-Nov-15 13:58N 48°04' W 005°02'510.8
2017-Nov-15 13:30N 48°05' W 004°55'510.4
2017-Nov-15 13:01N 48°06' W 004°47'5 9.4
2017-Nov-15 12:31N 48°06' W 004°40'510.2
2017-Nov-15 12:00N 48°07' W 004°32'510.2
2017-Nov-15 11:30N 48°07' W 004°25'4 7.5
2017-Nov-15 11:00N 48°06' W 004°20'0 0.0
2017-Nov-15 10:30N 48°06' W 004°20'0 0.0
2017-Nov-15 09:59N 48°06' W 004°20'0 0.0
2017-Nov-15 09:28N 48°06' W 004°20'0 0.0
2017-Nov-15 09:00N 48°06' W 004°20'0 0.0
2017-Nov-15 08:30N 48°06' W 004°20'0 0.0
2017-Nov-15 08:00N 48°06' W 004°20'0 0.0
2017-Nov-15 07:30N 48°06' W 004°20'0 0.0
2017-Nov-15 07:00N 48°06' W 004°20'0 0.0
2017-Nov-15 06:30N 48°06' W 004°20'0 0.0
2017-Nov-15 05:58N 48°06' W 004°20'0 0.0
2017-Nov-15 05:30N 48°06' W 004°20'0 0.0
2017-Nov-15 05:00N 48°06' W 004°20'0 0.0
2017-Nov-15 04:30N 48°06' W 004°20'0 0.0
2017-Nov-15 04:01N 48°06' W 004°20'0 0.0
2017-Nov-15 03:30N 48°06' W 004°20'0 0.0
2017-Nov-15 03:00N 48°06' W 004°20'0 0.0
2017-Nov-15 02:30N 48°06' W 004°20'0 0.0
2017-Nov-15 02:00N 48°06' W 004°20'0 0.0
2017-Nov-15 01:30N 48°06' W 004°20'0 0.0
2017-Nov-15 01:00N 48°06' W 004°20'0 0.0
2017-Nov-15 00:30N 48°06' W 004°20'0 0.0
2017-Nov-15 00:00N 48°06' W 004°20'0 0.0
2017-Nov-14 23:30N 48°06' W 004°20'0 0.0
2017-Nov-14 23:00N 48°06' W 004°20'0 0.0
2017-Nov-14 22:30N 48°06' W 004°20'0 0.1
2017-Nov-14 21:59N 48°06' W 004°20'2 4.8
2017-Nov-14 21:31N 48°07' W 004°22'3 6.5
2017-Nov-14 21:00N 48°07' W 004°27'4 7.2
2017-Nov-14 20:31N 48°08' W 004°33'4 8.2
2017-Nov-14 20:00N 48°08' W 004°39'5 9.4
2017-Nov-14 19:31N 48°09' W 004°46'5 9.3
2017-Nov-14 19:00N 48°09' W 004°53'5 9.6
2017-Nov-14 18:30N 48°10' W 004°60'510.0
2017-Nov-14 18:00N 48°11' W 005°07'610.5
2017-Nov-14 17:25N 48°12' W 005°16'  

Dump ship's entire track history